Time,TemperatureF,DewpointF,PressureIn,WindDirection,WindDirectionDegrees,WindSpeedMPH,WindSpeedGustMPH,Humidity,HourlyPrecipIn,Conditions,Clouds,dailyrainin,SolarRadiationWatts/m^2,SoftwareType,DateUTC
2013-01-18 00:04:00,6.0,-11.0,-100.00,SW,234,1.0,2.0,44,0.00,,,0.00,0.000000,,2013-01-18 05:04:00,
2013-01-18 00:10:00,6.0,-11.0,-100.00,East,100,1.0,2.0,44,0.00,,,0.00,0.000000,,2013-01-18 05:10:00,
2013-01-18 00:33:00,6.0,-11.0,-100.00,East,100,1.0,2.0,44,0.00,,,0.00,0.000000,,2013-01-18 05:33:00,
2013-01-18 00:43:00,6.0,-11.0,-100.00,East,100,1.0,2.0,44,0.00,,,0.00,0.000000,,2013-01-18 05:43:00,
2013-01-18 00:53:00,6.0,-11.0,-100.00,East,100,1.0,2.0,44,0.00,,,0.00,0.000000,,2013-01-18 05:53:00,
2013-01-18 01:02:00,6.0,-11.0,-100.00,East,100,1.0,2.0,44,0.00,,,0.00,0.000000,,2013-01-18 06:02:00,
2013-01-18 01:10:00,5.0,-9.0,-100.00,ENE,72,1.0,2.0,51,0.00,,,0.00,0.000000,,2013-01-18 06:10:00,
2013-01-18 01:33:00,5.0,-9.0,-100.00,ENE,72,1.0,2.0,51,0.00,,,0.00,0.000000,,2013-01-18 06:33:00,
2013-01-18 01:43:00,5.0,-9.0,-100.00,ENE,72,1.0,2.0,51,0.00,,,0.00,0.000000,,2013-01-18 06:43:00,
2013-01-18 01:53:00,5.0,-9.0,-100.00,ENE,72,1.0,2.0,51,0.00,,,0.00,0.000000,,2013-01-18 06:53:00,
2013-01-18 02:02:00,5.0,-9.0,-100.00,ENE,72,1.0,2.0,51,0.00,,,0.00,0.000000,,2013-01-18 07:02:00,
2013-01-18 02:10:00,3.0,-8.0,-100.00,ESE,105,1.0,2.0,59,0.00,,,0.00,0.000000,,2013-01-18 07:10:00,
2013-01-18 02:33:00,3.0,-8.0,-100.00,ESE,105,1.0,2.0,59,0.00,,,0.00,0.000000,,2013-01-18 07:33:00,
2013-01-18 02:42:00,3.0,-8.0,-100.00,ESE,105,1.0,2.0,59,0.00,,,0.00,0.000000,,2013-01-18 07:42:00,
2013-01-18 02:52:00,3.0,-8.0,-100.00,ESE,105,1.0,2.0,59,0.00,,,0.00,0.000000,,2013-01-18 07:52:00,
2013-01-18 03:02:00,3.0,-8.0,-100.00,ESE,105,1.0,2.0,59,0.00,,,0.00,0.000000,,2013-01-18 08:02:00,
2013-01-18 03:10:00,0.0,-10.0,-100.00,East,83,1.0,2.0,62,0.00,,,0.00,0.000000,,2013-01-18 08:10:00,
2013-01-18 03:33:00,0.0,-10.0,-100.00,East,83,1.0,2.0,62,0.00,,,0.00,0.000000,,2013-01-18 08:33:00,
2013-01-18 03:43:00,0.0,-10.0,-100.00,East,83,1.0,2.0,62,0.00,,,0.00,0.000000,,2013-01-18 08:43:00,
2013-01-18 03:53:00,0.0,-10.0,-100.00,East,83,1.0,2.0,62,0.00,,,0.00,0.000000,,2013-01-18 08:53:00,
2013-01-18 04:03:00,0.0,-10.0,-100.00,East,83,1.0,2.0,62,0.00,,,0.00,0.000000,,2013-01-18 09:03:00,
2013-01-18 04:10:00,-5.0,-13.0,-100.00,East,92,1.0,3.0,67,0.00,,,0.00,0.000000,,2013-01-18 09:10:00,
2013-01-18 04:33:00,-5.0,-13.0,-100.00,East,92,1.0,3.0,67,0.00,,,0.00,0.000000,,2013-01-18 09:33:00,
2013-01-18 04:43:00,-5.0,-13.0,-100.00,East,92,1.0,3.0,67,0.00,,,0.00,0.000000,,2013-01-18 09:43:00,
2013-01-18 04:53:00,-5.0,-13.0,-100.00,East,92,1.0,3.0,67,0.00,,,0.00,0.000000,,2013-01-18 09:53:00,
2013-01-18 05:03:00,-5.0,-13.0,-100.00,East,92,1.0,3.0,67,0.00,,,0.00,0.000000,,2013-01-18 10:03:00,
2013-01-18 05:10:00,-9.0,-16.0,-100.00,East,90,1.0,3.0,69,0.00,,,0.00,0.000000,,2013-01-18 10:10:00,
2013-01-18 05:33:00,-9.0,-16.0,-100.00,East,90,1.0,3.0,69,0.00,,,0.00,0.000000,,2013-01-18 10:33:00,
2013-01-18 05:43:00,-9.0,-16.0,-100.00,East,90,1.0,3.0,69,0.00,,,0.00,0.000000,,2013-01-18 10:43:00,
2013-01-18 05:53:00,-9.0,-16.0,-100.00,East,90,1.0,3.0,69,0.00,,,0.00,0.000000,,2013-01-18 10:53:00,
2013-01-18 06:03:00,-9.0,-16.0,-100.00,East,90,1.0,3.0,69,0.00,,,0.00,0.000000,,2013-01-18 11:03:00,
2013-01-18 06:10:00,-12.0,-19.0,-100.00,ENE,63,0.0,3.0,70,0.00,,,0.00,0.000000,,2013-01-18 11:10:00,
2013-01-18 06:33:00,-12.0,-19.0,-100.00,ENE,63,0.0,3.0,70,0.00,,,0.00,0.000000,,2013-01-18 11:33:00,
2013-01-18 06:43:00,-12.0,-19.0,-100.00,ENE,63,0.0,3.0,70,0.00,,,0.00,0.000000,,2013-01-18 11:43:00,
2013-01-18 06:53:00,-12.0,-19.0,-100.00,ENE,63,0.0,3.0,70,0.00,,,0.00,0.000000,,2013-01-18 11:53:00,
2013-01-18 07:03:00,-12.0,-19.0,-100.00,ENE,63,0.0,3.0,70,0.00,,,0.00,0.000000,,2013-01-18 12:03:00,
2013-01-18 07:10:00,-13.0,-20.0,-100.00,ESE,122,0.0,1.0,69,0.00,,,0.00,0.000000,,2013-01-18 12:10:00,
2013-01-18 07:33:00,-13.0,-20.0,-100.00,ESE,122,0.0,1.0,69,0.00,,,0.00,0.000000,,2013-01-18 12:33:00,
2013-01-18 07:43:00,-13.0,-20.0,-100.00,ESE,122,0.0,1.0,69,0.00,,,0.00,0.000000,,2013-01-18 12:43:00,
2013-01-18 07:53:00,-13.0,-20.0,-100.00,ESE,122,0.0,1.0,69,0.00,,,0.00,0.000000,,2013-01-18 12:53:00,
2013-01-18 08:03:00,-13.0,-20.0,-100.00,ESE,122,0.0,1.0,69,0.00,,,0.00,0.000000,,2013-01-18 13:03:00,
2013-01-18 08:10:00,-14.0,-21.0,-100.00,ESE,108,0.0,0.0,68,0.00,,,0.00,2.000000,,2013-01-18 13:10:00,
2013-01-18 08:34:00,-14.0,-21.0,-100.00,ESE,108,0.0,0.0,68,0.00,,,0.00,2.000000,,2013-01-18 13:34:00,
2013-01-18 08:43:00,-14.0,-21.0,-100.00,ESE,108,0.0,0.0,68,0.00,,,0.00,2.000000,,2013-01-18 13:43:00,
2013-01-18 08:53:00,-14.0,-21.0,-100.00,ESE,108,0.0,0.0,68,0.00,,,0.00,2.000000,,2013-01-18 13:53:00,
2013-01-18 09:03:00,-14.0,-21.0,-100.00,ESE,108,0.0,0.0,68,0.00,,,0.00,2.000000,,2013-01-18 14:03:00,
2013-01-18 09:10:00,-7.0,-14.0,-100.00,SW,234,0.0,0.0,70,0.00,,,0.00,7.000000,,2013-01-18 14:10:00,
2013-01-18 09:43:00,-7.0,-14.0,-100.00,SW,234,0.0,0.0,70,0.00,,,0.00,7.000000,,2013-01-18 14:43:00,
2013-01-18 09:53:00,-7.0,-14.0,-100.00,SW,234,0.0,0.0,70,0.00,,,0.00,7.000000,,2013-01-18 14:53:00,
2013-01-18 10:03:00,-7.0,-14.0,-100.00,SW,234,0.0,0.0,70,0.00,,,0.00,7.000000,,2013-01-18 15:03:00,
2013-01-18 10:10:00,3.0,-13.0,-100.00,SE,142,0.0,0.0,45,0.00,,,0.00,10.000000,,2013-01-18 15:10:00,
2013-01-18 10:34:00,3.0,-13.0,-100.00,SE,142,0.0,0.0,45,0.00,,,0.00,10.000000,,2013-01-18 15:34:00,
2013-01-18 10:43:00,3.0,-13.0,-100.00,SE,142,0.0,0.0,45,0.00,,,0.00,10.000000,,2013-01-18 15:43:00,
2013-01-18 10:54:00,3.0,-13.0,-100.00,SE,142,0.0,0.0,45,0.00,,,0.00,10.000000,,2013-01-18 15:54:00,
2013-01-18 11:03:00,3.0,-13.0,-100.00,SE,142,0.0,0.0,45,0.00,,,0.00,10.000000,,2013-01-18 16:03:00,
2013-01-18 11:10:00,6.0,-17.0,-100.00,WSW,241,3.0,11.0,33,0.00,,,0.00,22.000000,,2013-01-18 16:10:00,
2013-01-18 11:33:00,6.0,-17.0,-100.00,WSW,241,3.0,11.0,33,0.00,,,0.00,22.000000,,2013-01-18 16:33:00,
2013-01-18 11:43:00,6.0,-17.0,-100.00,WSW,241,3.0,11.0,33,0.00,,,0.00,22.000000,,2013-01-18 16:43:00,
2013-01-18 11:53:00,6.0,-17.0,-100.00,WSW,241,3.0,11.0,33,0.00,,,0.00,22.000000,,2013-01-18 16:53:00,
2013-01-18 12:03:00,6.0,-17.0,-100.00,WSW,241,3.0,11.0,33,0.00,,,0.00,22.000000,,2013-01-18 17:03:00,
2013-01-18 12:10:00,10.0,-13.0,-100.00,West,275,3.0,11.0,34,0.00,,,0.00,27.000000,,2013-01-18 17:10:00,
2013-01-18 12:34:00,10.0,-13.0,-100.00,West,275,3.0,11.0,34,0.00,,,0.00,27.000000,,2013-01-18 17:34:00,
2013-01-18 12:43:00,10.0,-13.0,-100.00,West,275,3.0,11.0,34,0.00,,,0.00,27.000000,,2013-01-18 17:43:00,
2013-01-18 12:53:00,10.0,-13.0,-100.00,West,275,3.0,11.0,34,0.00,,,0.00,27.000000,,2013-01-18 17:53:00,
2013-01-18 13:03:00,10.0,-13.0,-100.00,West,275,3.0,11.0,34,0.00,,,0.00,27.000000,,2013-01-18 18:03:00,
2013-01-18 13:10:00,14.0,-9.0,-100.00,West,263,5.0,13.0,34,0.00,,,0.00,58.000000,,2013-01-18 18:10:00,
2013-01-18 13:34:00,14.0,-9.0,-100.00,West,263,5.0,13.0,34,0.00,,,0.00,58.000000,,2013-01-18 18:34:00,
2013-01-18 13:43:00,14.0,-9.0,-100.00,West,263,5.0,13.0,34,0.00,,,0.00,58.000000,,2013-01-18 18:43:00,
2013-01-18 13:53:00,14.0,-9.0,-100.00,West,263,5.0,13.0,34,0.00,,,0.00,58.000000,,2013-01-18 18:53:00,
2013-01-18 14:03:00,14.0,-9.0,-100.00,West,263,5.0,13.0,34,0.00,,,0.00,58.000000,,2013-01-18 19:03:00,
2013-01-18 14:10:00,15.0,-9.0,-100.00,West,263,5.0,11.0,32,0.00,,,0.00,169.000000,,2013-01-18 19:10:00,
2013-01-18 14:33:00,15.0,-9.0,-100.00,West,263,5.0,11.0,32,0.00,,,0.00,169.000000,,2013-01-18 19:33:00,
2013-01-18 14:43:00,15.0,-9.0,-100.00,West,263,5.0,11.0,32,0.00,,,0.00,169.000000,,2013-01-18 19:43:00,
2013-01-18 14:53:00,15.0,-9.0,-100.00,West,263,5.0,11.0,32,0.00,,,0.00,169.000000,,2013-01-18 19:53:00,
2013-01-18 15:03:00,15.0,-9.0,-100.00,West,263,5.0,11.0,32,0.00,,,0.00,169.000000,,2013-01-18 20:03:00,
2013-01-18 15:10:00,14.0,-11.0,-100.00,WSW,245,4.0,16.0,31,0.00,,,0.00,59.000000,,2013-01-18 20:10:00,
2013-01-18 15:33:00,14.0,-11.0,-100.00,WSW,245,4.0,16.0,31,0.00,,,0.00,59.000000,,2013-01-18 20:33:00,
2013-01-18 15:43:00,14.0,-11.0,-100.00,WSW,245,4.0,16.0,31,0.00,,,0.00,59.000000,,2013-01-18 20:43:00,
2013-01-18 15:53:00,14.0,-11.0,-100.00,WSW,245,4.0,16.0,31,0.00,,,0.00,59.000000,,2013-01-18 20:53:00,
2013-01-18 16:03:00,14.0,-11.0,-100.00,WSW,245,4.0,16.0,31,0.00,,,0.00,59.000000,,2013-01-18 21:03:00,
2013-01-18 16:10:00,13.0,-10.0,-100.00,WSW,251,4.0,9.0,34,0.00,,,0.00,22.000000,,2013-01-18 21:10:00,
2013-01-18 16:43:00,13.0,-10.0,-100.00,WSW,251,4.0,9.0,34,0.00,,,0.00,22.000000,,2013-01-18 21:43:00,
2013-01-18 16:53:00,13.0,-10.0,-100.00,WSW,251,4.0,9.0,34,0.00,,,0.00,22.000000,,2013-01-18 21:53:00,
2013-01-18 17:03:00,13.0,-10.0,-100.00,WSW,251,4.0,9.0,34,0.00,,,0.00,22.000000,,2013-01-18 22:03:00,
2013-01-18 17:10:00,9.0,-11.0,-100.00,South,186,1.0,11.0,38,0.00,,,0.00,4.000000,,2013-01-18 22:10:00,
2013-01-18 17:43:00,9.0,-11.0,-100.00,South,186,1.0,11.0,38,0.00,,,0.00,4.000000,,2013-01-18 22:43:00,
2013-01-18 17:53:00,9.0,-11.0,-100.00,South,186,1.0,11.0,38,0.00,,,0.00,4.000000,,2013-01-18 22:53:00,
2013-01-18 18:03:00,9.0,-11.0,-100.00,South,186,1.0,11.0,38,0.00,,,0.00,4.000000,,2013-01-18 23:03:00,
2013-01-18 18:10:00,3.0,-8.0,-100.00,ESE,109,1.0,3.0,59,0.00,,,0.00,0.000000,,2013-01-18 23:10:00,
2013-01-18 18:33:00,3.0,-8.0,-100.00,ESE,109,1.0,3.0,59,0.00,,,0.00,0.000000,,2013-01-18 23:33:00,
2013-01-18 18:43:00,3.0,-8.0,-100.00,ESE,109,1.0,3.0,59,0.00,,,0.00,0.000000,,2013-01-18 23:43:00,
2013-01-18 18:53:00,3.0,-8.0,-100.00,ESE,109,1.0,3.0,59,0.00,,,0.00,0.000000,,2013-01-18 23:53:00,
2013-01-18 19:03:00,3.0,-8.0,-100.00,ESE,109,1.0,3.0,59,0.00,,,0.00,0.000000,,2013-01-19 00:03:00,
2013-01-18 19:10:00,-1.0,-11.0,-100.00,SE,125,1.0,2.0,63,0.00,,,0.00,0.000000,,2013-01-19 00:10:00,
2013-01-18 19:33:00,-1.0,-11.0,-100.00,SE,125,1.0,2.0,63,0.00,,,0.00,0.000000,,2013-01-19 00:33:00,
2013-01-18 19:43:00,-1.0,-11.0,-100.00,SE,125,1.0,2.0,63,0.00,,,0.00,0.000000,,2013-01-19 00:43:00,
2013-01-18 19:53:00,-1.0,-11.0,-100.00,SE,125,1.0,2.0,63,0.00,,,0.00,0.000000,,2013-01-19 00:53:00,
2013-01-18 20:03:00,-1.0,-11.0,-100.00,SE,125,1.0,2.0,63,0.00,,,0.00,0.000000,,2013-01-19 01:03:00,
2013-01-18 20:10:00,-4.0,-12.0,-100.00,East,100,1.0,2.0,67,0.00,,,0.00,0.000000,,2013-01-19 01:10:00,
2013-01-18 20:33:00,-4.0,-12.0,-100.00,East,100,1.0,2.0,67,0.00,,,0.00,0.000000,,2013-01-19 01:33:00,
2013-01-18 20:43:00,-4.0,-12.0,-100.00,East,100,1.0,2.0,67,0.00,,,0.00,0.000000,,2013-01-19 01:43:00,
2013-01-18 20:53:00,-4.0,-12.0,-100.00,East,100,1.0,2.0,67,0.00,,,0.00,0.000000,,2013-01-19 01:53:00,
2013-01-18 21:03:00,-4.0,-12.0,-100.00,East,100,1.0,2.0,67,0.00,,,0.00,0.000000,,2013-01-19 02:03:00,
2013-01-18 21:10:00,-6.0,-13.0,-100.00,ESE,104,1.0,2.0,70,0.00,,,0.00,0.000000,,2013-01-19 02:10:00,
2013-01-18 21:33:00,-6.0,-13.0,-100.00,ESE,104,1.0,2.0,70,0.00,,,0.00,0.000000,,2013-01-19 02:33:00,
2013-01-18 21:43:00,-6.0,-13.0,-100.00,ESE,104,1.0,2.0,70,0.00,,,0.00,0.000000,,2013-01-19 02:43:00,
2013-01-18 21:53:00,-6.0,-13.0,-100.00,ESE,104,1.0,2.0,70,0.00,,,0.00,0.000000,,2013-01-19 02:53:00,
2013-01-18 22:03:00,-6.0,-13.0,-100.00,ESE,104,1.0,2.0,70,0.00,,,0.00,0.000000,,2013-01-19 03:03:00,
2013-01-18 22:10:00,-7.0,-14.0,-100.00,ESE,102,1.0,2.0,71,0.00,,,0.00,0.000000,,2013-01-19 03:10:00,
2013-01-18 22:33:00,-7.0,-14.0,-100.00,ESE,102,1.0,2.0,71,0.00,,,0.00,0.000000,,2013-01-19 03:33:00,
2013-01-18 22:44:00,-7.0,-14.0,-100.00,ESE,102,1.0,2.0,71,0.00,,,0.00,0.000000,,2013-01-19 03:44:00,
2013-01-18 22:53:00,-7.0,-14.0,-100.00,ESE,102,1.0,2.0,71,0.00,,,0.00,0.000000,,2013-01-19 03:53:00,
2013-01-18 23:02:00,-7.0,-14.0,-100.00,ESE,102,1.0,2.0,71,0.00,,,0.00,0.000000,,2013-01-19 04:02:00,
2013-01-18 23:10:00,-5.0,-12.0,-100.00,SSW,204,1.0,2.0,72,0.00,,,0.00,0.000000,,2013-01-19 04:10:00,
2013-01-18 23:33:00,-5.0,-12.0,-100.00,SSW,204,1.0,2.0,72,0.00,,,0.00,0.000000,,2013-01-19 04:33:00,
2013-01-18 23:43:00,-5.0,-12.0,-100.00,SSW,204,1.0,2.0,72,0.00,,,0.00,0.000000,,2013-01-19 04:43:00,
2013-01-18 23:53:00,-5.0,-12.0,-100.00,SSW,204,1.0,2.0,72,0.00,,,0.00,0.000000,,2013-01-19 04:53:00,